createdAt,value
2022-08-12T00:02:04.248Z,10.90
2022-08-12T00:04:53.215Z,18.83
2022-08-12T00:07:39.412Z,12.20
2022-08-12T00:10:26.273Z,8.13
2022-08-12T00:13:12.656Z,5.87
2022-08-12T00:16:02.153Z,5.57
2022-08-12T00:18:48.161Z,9.37
2022-08-12T00:21:37.412Z,4.87
2022-08-12T00:24:24.135Z,2.70
2022-08-12T00:27:09.672Z,3.03
2022-08-12T00:29:55.477Z,2.57
2022-08-12T00:32:48.997Z,2.77
2022-08-12T00:35:42.926Z,5.57
2022-08-12T00:38:31.831Z,9.33
2022-08-12T00:41:18.031Z,5.33
2022-08-12T00:43:47.821Z,3.70
2022-08-12T00:46:36.469Z,8.77
2022-08-12T00:49:05.646Z,5.13
2022-08-12T00:51:48.111Z,5.30
2022-08-12T00:54:18.413Z,5.43
2022-08-12T00:56:51.231Z,17.90
2022-08-12T00:59:19.955Z,9.33
2022-08-12T01:02:02.350Z,7.03
2022-08-12T01:04:57.296Z,5.20
2022-08-12T01:07:43.596Z,8.90
2022-08-12T01:10:32.952Z,6.67
2022-08-12T01:13:18.599Z,5.43
2022-08-12T01:15:50.569Z,4.70
2022-08-12T01:18:19.412Z,3.27
2022-08-12T01:20:51.481Z,2.40
2022-08-12T01:23:38.054Z,13.13
2022-08-12T01:26:10.147Z,2.70
2022-08-12T01:28:39.932Z,2.33
2022-08-12T01:31:09.788Z,2.53
2022-08-12T01:33:45.320Z,3.90
2022-08-12T01:36:15.562Z,2.50
2022-08-12T01:38:44.617Z,3.37
2022-08-12T01:41:16.613Z,1.73
2022-08-12T01:43:45.654Z,3.30
2022-08-12T01:46:25.611Z,2.40
2022-08-12T01:49:04.826Z,2.70
2022-08-12T01:52:20.745Z,2.20
2022-08-12T01:54:30.202Z,3.07
2022-08-12T01:57:11.004Z,4.93
2022-08-12T01:59:59.270Z,3.87
2022-08-12T02:02:39.602Z,3.00
2022-08-12T02:05:35.414Z,8.40
2022-08-12T02:08:33.159Z,4.37
2022-08-12T02:11:21.525Z,2.37
2022-08-12T02:14:07.640Z,1.67
2022-08-12T02:16:51.933Z,2.00
2022-08-12T02:19:37.273Z,2.33
2022-08-12T02:22:15.451Z,2.60
2022-08-12T02:24:46.026Z,2.20
2022-08-12T02:27:15.464Z,3.40
2022-08-12T02:29:45.236Z,3.20
2022-08-12T02:32:13.577Z,2.10
2022-08-12T02:34:41.948Z,2.73
2022-08-12T02:37:10.646Z,4.80
2022-08-12T02:39:41.489Z,4.60
2022-08-12T02:42:12.039Z,5.03
2022-08-12T02:44:42.933Z,8.93
2022-08-12T02:47:58.751Z,9.37
2022-08-12T02:50:05.122Z,8.10
2022-08-12T02:52:35.019Z,11.70
2022-08-12T02:55:12.858Z,7.50
2022-08-12T02:57:57.405Z,8.37
2022-08-12T03:00:28.796Z,8.27
2022-08-12T03:02:59.906Z,8.70
2022-08-12T03:05:28.140Z,8.60
2022-08-12T03:08:00.267Z,6.20
2022-08-12T03:10:37.194Z,9.20
2022-08-12T03:13:08.288Z,12.50
2022-08-12T03:15:37.773Z,5.10
2022-08-12T03:18:26.185Z,8.17
2022-08-12T03:20:58.298Z,19.40
2022-08-12T03:23:29.646Z,22.33
2022-08-12T03:26:00.747Z,17.83
2022-08-12T03:28:48.510Z,14.93
2022-08-12T03:31:16.844Z,11.00
2022-08-12T03:34:01.827Z,8.77
2022-08-12T03:36:33.625Z,8.00
2022-08-12T03:39:17.081Z,8.87
2022-08-12T03:41:50.179Z,12.17
2022-08-12T03:44:42.797Z,13.13
2022-08-12T03:47:32.018Z,19.77
2022-08-12T03:50:18.911Z,27.63
2022-08-12T03:53:04.573Z,20.07
2022-08-12T03:55:50.173Z,23.60
2022-08-12T03:58:35.710Z,7.97
2022-08-12T04:01:04.092Z,14.93
2022-08-12T04:03:50.818Z,10.07
2022-08-12T04:06:35.229Z,5.40
2022-08-12T04:09:16.037Z,13.23
2022-08-12T04:12:03.090Z,7.47
2022-08-12T04:14:31.850Z,10.30
2022-08-12T04:17:00.073Z,5.13
2022-08-12T04:19:28.891Z,5.13
2022-08-12T04:22:01.139Z,10.30
2022-08-12T04:24:30.987Z,2.80
2022-08-12T04:26:59.291Z,2.63
2022-08-12T04:30:30.176Z,5.63
2022-08-12T04:32:16.740Z,5.93
2022-08-12T04:34:45.199Z,10.87
2022-08-12T04:37:16.083Z,5.07
2022-08-12T04:39:45.821Z,6.37
2022-08-12T04:42:14.307Z,6.17
2022-08-12T04:44:44.511Z,4.83
2022-08-12T04:47:13.343Z,9.30
2022-08-12T04:49:42.010Z,13.50
2022-08-12T04:52:11.444Z,6.80
2022-08-12T04:54:41.063Z,7.63
2022-08-12T04:57:09.850Z,14.13
2022-08-12T04:59:48.191Z,2.40
2022-08-12T05:02:21.653Z,6.50
2022-08-12T05:05:00.631Z,2.83
2022-08-12T05:07:29.657Z,10.00
2022-08-12T05:10:02.074Z,3.53
2022-08-12T05:12:37.526Z,8.40
2022-08-12T05:15:19.538Z,4.97
2022-08-12T05:17:55.667Z,8.43
2022-08-12T05:20:26.137Z,11.97
2022-08-12T05:23:12.688Z,6.13
2022-08-12T05:25:43.613Z,8.33
2022-08-12T05:28:13.135Z,4.67
2022-08-12T05:30:42.697Z,15.57
2022-08-12T05:33:12.226Z,15.73
2022-08-12T05:35:43.167Z,6.83
2022-08-12T05:38:30.332Z,13.67
2022-08-12T05:41:00.463Z,6.77
2022-08-12T05:43:29.049Z,4.73
2022-08-12T05:45:57.596Z,8.70
2022-08-12T05:48:25.738Z,11.83
2022-08-12T05:50:53.871Z,4.10
2022-08-12T05:53:22.113Z,8.43
2022-08-12T05:55:50.304Z,5.33
2022-08-12T05:58:20.633Z,4.83
2022-08-12T06:00:48.824Z,2.30
2022-08-12T06:03:19.765Z,5.77
2022-08-12T06:05:55.071Z,4.90
2022-08-12T06:08:24.479Z,7.13
2022-08-12T06:10:53.091Z,4.73
2022-08-12T06:13:27.945Z,2.43
2022-08-12T06:15:57.311Z,3.50
2022-08-12T06:18:29.730Z,4.40
2022-08-12T06:21:01.880Z,5.43
2022-08-12T06:23:31.830Z,3.67
2022-08-12T06:26:00.754Z,2.80
2022-08-12T06:28:31.049Z,6.10
2022-08-12T06:31:24.790Z,4.10
2022-08-12T06:33:57.664Z,3.90
2022-08-12T06:36:33.589Z,2.83
2022-08-12T06:39:02.212Z,6.57
2022-08-12T06:42:27.752Z,6.10
2022-08-12T06:44:37.600Z,4.13
2022-08-12T06:47:06.102Z,3.73
2022-08-12T06:49:36.776Z,8.70
2022-08-12T06:52:07.464Z,5.20
2022-08-12T06:54:35.589Z,5.40
2022-08-12T06:57:56.880Z,6.23
2022-08-12T06:59:53.498Z,2.87
2022-08-12T07:02:23.038Z,2.33
2022-08-12T07:04:55.034Z,8.50
2022-08-12T07:07:23.224Z,2.90
2022-08-12T07:10:04.048Z,2.80
2022-08-12T07:12:36.967Z,2.83
2022-08-12T07:15:08.381Z,1.93
2022-08-12T07:17:39.151Z,3.33
2022-08-12T07:20:29.526Z,3.30
2022-08-12T07:23:00.385Z,4.13
2022-08-12T07:25:40.648Z,3.50
2022-08-12T07:28:16.400Z,5.67
2022-08-12T07:30:48.586Z,2.70
2022-08-12T07:33:18.018Z,2.53
2022-08-12T07:45:13.593Z,3.40
2022-08-12T07:47:43.958Z,2.40
2022-08-12T07:50:13.739Z,3.20
2022-08-12T07:52:43.938Z,2.83
2022-08-12T07:55:12.856Z,4.60
2022-08-12T07:57:50.352Z,2.33
2022-08-12T08:00:18.941Z,2.50
2022-08-12T08:02:49.378Z,5.90
2022-08-12T08:05:18.907Z,3.60
2022-08-12T08:07:48.738Z,2.30
2022-08-12T08:10:18.420Z,2.10
2022-08-12T08:12:56.401Z,4.57
2022-08-12T08:15:51.087Z,6.07
2022-08-12T08:18:26.339Z,4.30
2022-08-12T08:20:56.693Z,2.80
2022-08-12T08:23:55.583Z,2.17
2022-08-12T08:26:27.147Z,2.37
2022-08-12T08:28:55.603Z,2.43
2022-08-12T08:31:23.766Z,4.80
2022-08-12T08:34:09.118Z,3.60
2022-08-12T08:36:44.036Z,2.03
2022-08-12T08:39:17.028Z,2.37
2022-08-12T08:42:19.186Z,2.23
2022-08-12T08:44:50.354Z,2.13
2022-08-12T08:47:26.993Z,2.23
2022-08-12T08:50:01.315Z,4.90
2022-08-12T08:52:39.388Z,2.27
2022-08-12T08:55:10.520Z,1.97
2022-08-12T08:57:43.875Z,2.70
2022-08-12T09:00:16.487Z,3.00
2022-08-12T09:02:49.190Z,2.43
2022-08-12T09:05:43.204Z,2.20
2022-08-12T09:08:23.135Z,4.13
2022-08-12T09:12:07.633Z,2.00
2022-08-12T09:14:18.665Z,1.40
2022-08-12T09:16:50.157Z,2.73
2022-08-12T09:19:27.308Z,2.50
2022-08-12T09:22:00.167Z,2.60
2022-08-12T09:24:30.923Z,2.40
2022-08-12T09:27:00.115Z,2.73
2022-08-12T09:30:12.040Z,1.93
2022-08-12T09:32:56.161Z,2.43
2022-08-12T09:35:21.988Z,2.37
2022-08-12T09:37:58.661Z,2.50
2022-08-12T09:40:56.140Z,1.80
2022-08-12T09:43:32.627Z,1.97
2022-08-12T09:46:06.525Z,6.47
2022-08-12T09:48:56.384Z,1.60
2022-08-12T09:51:37.618Z,1.60
2022-08-12T09:54:32.645Z,1.63
2022-08-12T09:57:03.887Z,1.83
2022-08-12T10:00:15.330Z,1.87
2022-08-12T10:02:45.121Z,1.77
2022-08-12T10:05:20.628Z,2.50
2022-08-12T10:07:49.582Z,2.20
2022-08-12T10:10:22.340Z,1.77
2022-08-12T10:13:09.076Z,3.43
2022-08-12T10:16:02.978Z,2.00
2022-08-12T10:18:27.547Z,2.47
2022-08-12T10:20:57.137Z,1.83
2022-08-12T10:23:39.392Z,2.00
2022-08-12T10:26:36.607Z,1.40
2022-08-12T10:30:11.866Z,1.93
2022-08-12T10:32:20.815Z,1.37
2022-08-12T10:34:53.384Z,3.50
2022-08-12T10:38:34.201Z,1.43
2022-08-12T10:40:20.430Z,2.80
2022-08-12T10:43:08.883Z,1.60
2022-08-12T10:45:38.388Z,3.00
2022-08-12T10:48:21.768Z,1.87
2022-08-12T10:51:03.344Z,1.83
2022-08-12T10:53:46.769Z,1.30
2022-08-12T10:56:16.215Z,1.03
2022-08-12T10:58:47.969Z,1.97
2022-08-12T11:01:50.143Z,1.30
2022-08-12T11:04:19.436Z,3.17
2022-08-12T11:07:05.631Z,1.37
2022-08-12T11:10:00.355Z,1.33
2022-08-12T11:12:55.020Z,1.20
2022-08-12T11:16:04.094Z,1.93
2022-08-12T11:18:46.118Z,1.83
2022-08-12T11:21:58.504Z,2.63
2022-08-12T11:24:51.601Z,1.13
2022-08-12T11:27:21.971Z,1.20
2022-08-12T11:30:06.518Z,1.20
2022-08-12T11:32:39.196Z,3.53
2022-08-12T11:35:09.253Z,1.50
2022-08-12T11:37:58.467Z,1.70
2022-08-12T11:40:28.489Z,1.50
2022-08-12T11:43:00.684Z,1.30
2022-08-12T11:45:46.906Z,2.03
2022-08-12T11:48:17.095Z,2.00
2022-08-12T11:50:46.960Z,4.10
2022-08-12T11:53:59.519Z,2.40
2022-08-12T11:56:06.529Z,2.83
2022-08-12T12:01:02.698Z,3.00
2022-08-12T12:02:02.557Z,1.70
2022-08-12T12:04:22.656Z,2.37
2022-08-12T12:07:06.995Z,1.83
2022-08-12T12:09:52.608Z,1.87
2022-08-12T12:12:23.426Z,11.50
2022-08-12T12:14:55.010Z,2.83
2022-08-12T12:17:24.809Z,2.33
2022-08-12T12:19:55.194Z,1.70
2022-08-12T12:22:30.805Z,1.70
2022-08-12T12:25:12.598Z,1.57
2022-08-12T12:28:05.162Z,1.73
2022-08-12T12:30:34.972Z,1.50
2022-08-12T12:33:03.187Z,1.93
2022-08-12T12:36:05.964Z,2.23
2022-08-12T12:38:25.465Z,2.97
2022-08-12T12:40:54.156Z,3.00
2022-08-12T12:43:28.929Z,2.53
2022-08-12T12:46:10.669Z,4.80
2022-08-12T12:48:44.078Z,3.07
2022-08-12T12:51:48.162Z,1.57
2022-08-12T12:54:10.551Z,2.40
2022-08-12T12:56:42.722Z,1.40
2022-08-12T12:59:34.970Z,2.77
2022-08-12T13:02:02.098Z,3.13
2022-08-12T13:04:37.159Z,1.50
2022-08-12T13:07:08.066Z,6.00
2022-08-12T13:09:37.002Z,1.30
2022-08-12T13:12:08.991Z,5.17
2022-08-12T13:14:39.589Z,2.10
2022-08-12T13:17:09.724Z,7.97
2022-08-12T13:19:46.820Z,1.93
2022-08-12T13:22:21.414Z,4.30
2022-08-12T13:24:55.721Z,2.40
2022-08-12T13:27:35.061Z,3.10
2022-08-12T13:30:13.061Z,3.17
2022-08-12T13:32:42.715Z,8.50
2022-08-12T13:35:19.730Z,2.17
2022-08-12T13:37:55.217Z,4.53
2022-08-12T13:40:25.018Z,1.50
2022-08-12T13:42:58.021Z,2.03
2022-08-12T13:45:26.977Z,1.90
2022-08-12T13:48:00.047Z,3.30
2022-08-12T13:50:32.632Z,1.93
2022-08-12T13:53:23.163Z,1.27
2022-08-12T13:55:59.667Z,4.07
2022-08-12T13:58:32.770Z,1.40
2022-08-12T14:01:05.766Z,3.70
2022-08-12T14:03:51.430Z,2.67
2022-08-12T14:06:21.670Z,2.40
2022-08-12T14:08:56.430Z,1.53
2022-08-12T14:11:27.838Z,1.63
2022-08-12T14:14:06.127Z,2.10
2022-08-12T14:16:49.046Z,1.60
2022-08-12T14:19:22.366Z,3.60
2022-08-12T14:22:00.501Z,1.80
2022-08-12T14:24:40.918Z,3.60
2022-08-12T14:27:11.021Z,1.60
2022-08-12T14:30:04.869Z,1.50
2022-08-12T14:32:34.610Z,2.00
2022-08-12T14:35:09.417Z,2.23
2022-08-12T14:37:57.414Z,3.57
2022-08-12T14:40:29.598Z,2.07
2022-08-12T14:42:58.861Z,3.47
2022-08-12T14:45:45.401Z,2.27
2022-08-12T14:48:18.635Z,2.33
2022-08-12T14:51:02.821Z,1.60
2022-08-12T14:55:18.225Z,1.40
2022-08-12T14:59:57.446Z,2.03
2022-08-12T15:02:21.742Z,4.40
2022-08-12T15:04:59.591Z,2.30
2022-08-12T15:07:33.609Z,1.60
2022-08-12T15:10:31.725Z,1.73
2022-08-12T15:13:07.338Z,4.70
2022-08-12T15:15:45.542Z,9.50
2022-08-12T15:18:21.086Z,1.43
2022-08-12T15:20:51.431Z,4.23
2022-08-12T15:23:21.629Z,2.23
2022-08-12T15:26:00.059Z,4.80
2022-08-12T15:28:34.402Z,2.80
2022-08-12T15:31:02.735Z,3.20
2022-08-12T15:33:44.782Z,2.93
2022-08-12T15:36:14.550Z,3.43
2022-08-12T15:38:47.956Z,1.40
2022-08-12T15:41:16.497Z,3.00
2022-08-12T15:44:17.026Z,2.80
2022-08-12T15:46:34.439Z,2.00
2022-08-12T15:49:03.988Z,4.50
2022-08-12T15:51:58.831Z,2.30
2022-08-12T15:54:35.181Z,3.27
2022-08-12T15:57:07.725Z,1.53
2022-08-12T15:59:51.717Z,1.37
2022-08-12T16:02:41.892Z,3.50
2022-08-12T16:06:12.956Z,2.60
2022-08-12T16:08:18.453Z,3.07
2022-08-12T16:10:48.835Z,2.43
2022-08-12T16:13:32.262Z,2.10
2022-08-12T16:16:03.797Z,5.27
2022-08-12T16:18:35.663Z,1.70
2022-08-12T16:21:09.376Z,1.53
2022-08-12T16:23:55.755Z,2.10
2022-08-12T16:26:32.191Z,2.27
2022-08-12T16:29:14.776Z,2.43
2022-08-12T16:31:46.690Z,2.27
2022-08-12T16:34:42.166Z,2.13
2022-08-12T16:37:08.133Z,3.40
2022-08-12T16:40:01.229Z,3.27
2022-08-12T16:42:28.511Z,1.30
2022-08-12T16:44:59.618Z,1.30
2022-08-12T16:47:57.400Z,1.67
2022-08-12T16:50:31.092Z,2.60
2022-08-12T16:52:59.889Z,1.93
2022-08-12T16:55:41.981Z,1.67
2022-08-12T16:58:18.682Z,2.00
2022-08-12T17:00:57.073Z,1.40
2022-08-12T17:03:28.779Z,2.10
2022-08-12T17:05:58.632Z,2.00
2022-08-12T17:08:28.997Z,3.90
2022-08-12T17:10:59.072Z,2.30
2022-08-12T17:13:28.556Z,2.60
2022-08-12T17:16:06.141Z,1.60
2022-08-12T17:18:45.496Z,2.13
2022-08-12T17:21:41.786Z,3.50
2022-08-12T17:24:22.365Z,2.00
2022-08-12T17:26:54.124Z,1.70
2022-08-12T17:29:24.379Z,3.10
2022-08-12T17:32:14.913Z,2.50
2022-08-12T17:35:01.994Z,4.57
2022-08-12T17:37:30.167Z,4.70
2022-08-12T17:40:12.099Z,5.70
2022-08-12T17:42:47.297Z,2.13
2022-08-12T17:45:19.367Z,1.53
2022-08-12T17:48:04.637Z,2.03
2022-08-12T17:50:38.134Z,3.93
2022-08-12T17:53:10.085Z,2.00
2022-08-12T17:55:47.268Z,8.20
2022-08-12T17:58:17.754Z,3.10
2022-08-12T18:00:48.085Z,2.20
2022-08-12T18:03:58.031Z,4.20
2022-08-12T18:06:14.060Z,2.50
2022-08-12T18:08:53.469Z,5.70
2022-08-12T18:12:06.693Z,2.00
2022-08-12T18:14:31.450Z,2.13
2022-08-12T18:17:02.440Z,3.40
2022-08-12T18:20:03.790Z,1.80
2022-08-12T18:22:30.576Z,1.67
2022-08-12T18:25:03.719Z,2.10
2022-08-12T18:27:44.832Z,1.80
2022-08-12T18:30:20.362Z,2.83
2022-08-12T18:32:59.243Z,2.83
2022-08-12T18:35:46.529Z,3.10
2022-08-12T18:38:19.046Z,6.17
2022-08-12T18:41:06.081Z,5.83
2022-08-12T18:43:57.206Z,1.90
2022-08-12T18:46:29.853Z,1.70
2022-08-12T18:49:17.667Z,2.57
2022-08-12T18:51:55.213Z,4.23
2022-08-12T18:54:35.171Z,3.70
2022-08-12T18:57:16.791Z,4.50
2022-08-12T19:00:02.097Z,3.37
2022-08-12T19:02:44.574Z,2.50
2022-08-12T19:05:52.927Z,3.57
2022-08-12T19:08:16.958Z,10.43
2022-08-12T19:10:51.254Z,2.37
2022-08-12T19:13:37.767Z,2.23
2022-08-12T19:16:10.929Z,4.60
2022-08-12T19:18:45.137Z,4.77
2022-08-12T19:21:16.617Z,2.77
2022-08-12T19:24:05.808Z,1.80
2022-08-12T19:26:35.129Z,2.53
2022-08-12T19:29:05.135Z,3.60
2022-08-12T19:31:58.048Z,3.80
2022-08-12T19:37:27.213Z,3.97
2022-08-12T19:40:09.197Z,5.57
2022-08-12T19:42:53.406Z,2.70
2022-08-12T19:45:41.790Z,6.13
2022-08-12T19:48:16.529Z,4.80
2022-08-12T19:50:49.861Z,2.70
2022-08-12T19:53:19.437Z,8.00
2022-08-12T19:55:50.753Z,2.60
2022-08-12T19:58:22.907Z,3.90
2022-08-12T20:00:54.706Z,5.47
2022-08-12T20:03:40.579Z,3.73
2022-08-12T20:06:21.598Z,2.27
2022-08-12T20:08:56.426Z,3.07
2022-08-12T20:12:12.608Z,4.00
2022-08-12T20:14:19.283Z,4.00
2022-08-12T20:16:51.845Z,3.17
2022-08-12T20:19:52.344Z,4.30
2022-08-12T20:22:16.748Z,3.77
2022-08-12T20:24:54.958Z,2.40
2022-08-12T20:27:29.330Z,2.10
2022-08-12T20:30:16.256Z,3.57
2022-08-12T20:32:53.942Z,5.60
2022-08-12T20:35:24.782Z,2.63
2022-08-12T20:38:06.795Z,2.37
2022-08-12T20:40:42.336Z,2.20
2022-08-12T20:43:19.129Z,2.13
2022-08-12T20:45:57.413Z,4.33
2022-08-12T20:48:29.395Z,4.50
2022-08-12T20:51:04.399Z,5.73
2022-08-12T20:53:58.281Z,2.30
2022-08-12T20:56:30.250Z,5.83
2022-08-12T20:59:05.041Z,2.30
2022-08-12T21:01:45.908Z,5.90
2022-08-12T21:04:34.396Z,1.80
2022-08-12T21:07:09.396Z,3.00
2022-08-12T21:09:42.542Z,4.37
2022-08-12T21:12:31.595Z,3.60
2022-08-12T21:15:18.121Z,2.40
2022-08-12T21:18:11.237Z,2.33
2022-08-12T21:20:52.714Z,4.27
2022-08-12T21:23:22.948Z,3.43
2022-08-12T21:25:52.664Z,5.90
2022-08-12T21:28:31.284Z,5.07
2022-08-12T21:32:36.284Z,2.67
2022-08-12T21:34:08.668Z,2.10
2022-08-12T21:36:39.793Z,3.70
2022-08-12T21:39:18.106Z,2.33
2022-08-12T21:41:51.002Z,3.30
2022-08-12T21:44:24.150Z,3.83
2022-08-12T21:47:12.138Z,2.60
2022-08-12T21:50:04.043Z,2.57
2022-08-12T21:52:36.596Z,3.33
2022-08-12T21:55:08.297Z,3.50
2022-08-12T21:57:50.786Z,4.07
2022-08-12T22:00:21.316Z,4.23
2022-08-12T22:03:07.751Z,2.50
2022-08-12T22:05:55.025Z,3.40
2022-08-12T22:08:26.060Z,3.67
2022-08-12T22:10:56.305Z,11.30
2022-08-12T22:14:04.261Z,53.53
2022-08-12T22:16:14.557Z,61.33
2022-08-12T22:18:50.157Z,16.23
2022-08-12T22:21:22.212Z,11.53
2022-08-12T22:24:05.478Z,3.70
2022-08-12T22:26:37.452Z,2.27
2022-08-12T22:29:27.364Z,2.67
2022-08-12T22:31:56.149Z,2.80
2022-08-12T22:34:33.304Z,2.17
2022-08-12T22:37:05.737Z,2.37
2022-08-12T22:39:44.121Z,2.70
2022-08-12T22:42:30.771Z,5.73
2022-08-12T22:45:31.875Z,3.10
2022-08-12T22:48:21.963Z,3.00
2022-08-12T22:50:59.225Z,2.83
2022-08-12T22:53:36.201Z,4.07
2022-08-12T22:56:07.251Z,3.20
2022-08-12T22:58:40.601Z,2.93
2022-08-12T23:01:21.148Z,3.00
2022-08-12T23:04:00.485Z,2.50
2022-08-12T23:06:31.167Z,5.00
2022-08-12T23:09:00.857Z,8.40
2022-08-12T23:11:33.893Z,3.70
2022-08-12T23:14:09.286Z,9.00
2022-08-12T23:16:40.744Z,6.40
2022-08-12T23:19:17.596Z,6.93
2022-08-12T23:22:06.332Z,3.60
2022-08-12T23:24:53.732Z,5.97
2022-08-12T23:27:50.283Z,3.23
2022-08-12T23:30:24.922Z,5.07
2022-08-12T23:33:00.623Z,5.63
2022-08-12T23:35:58.789Z,7.50
2022-08-12T23:38:28.949Z,5.97
2022-08-12T23:41:03.630Z,3.40
2022-08-12T23:43:38.967Z,3.30
2022-08-12T23:46:10.543Z,3.70
2022-08-12T23:48:38.846Z,9.43
2022-08-12T23:51:23.655Z,14.00
2022-08-12T23:53:55.352Z,6.37
2022-08-12T23:56:25.921Z,7.50
2022-08-12T23:58:57.564Z,4.87
